Time;durP1;ratioP1;P1;durP2;ratioP2;P2;SDS_P1;SDS_P2;PMS_P1;PMS_P2;Temp;Humidity;BMP_temperature;BMP_pressure;BME280_temperature;BME280_humidity;BME280_pressure;Samples;Min_cycle;Max_cycle;Signal;HPM_P1;HPM_P2
2022/12/25 00:00:14;;;;;;;74.28;42.05;;;;;;;;;;6266981;28;20378;-72
2022/12/25 00:03:16;;;;;;;73.72;41.53;;;;;;;;;;6266839;28;20067;-71
2022/12/25 00:06:18;;;;;;;69.60;39.67;;;;;;;;;;6266589;28;20325;-71
2022/12/25 00:09:20;;;;;;;71.25;41.15;;;;;;;;;;6267054;28;20108;-73
2022/12/25 00:12:21;;;;;;;74.13;40.88;;;;;;;;;;6266338;28;20103;-72
2022/12/25 00:15:25;;;;;;;76.00;41.78;;;;;;;;;;6268300;28;20095;-72
2022/12/25 00:18:26;;;;;;;77.55;42.95;;;;;;;;;;6266400;28;20053;-72
2022/12/25 00:21:28;;;;;;;69.18;39.42;;;;;;;;;;6267556;28;20060;-72
2022/12/25 00:24:30;;;;;;;68.47;37.17;;;;;;;;;;6268399;28;20053;-72
2022/12/25 00:27:32;;;;;;;68.68;39.08;;;;;;;;;;6264645;28;20053;-73
2022/12/25 00:30:39;;;;;;;76.85;38.75;;;;;;;;;;6265143;28;20041;-71
2022/12/25 00:33:43;;;;;;;70.10;39.65;;;;;;;;;;6267092;28;20060;-72
2022/12/25 00:36:44;;;;;;;73.68;40.25;;;;;;;;;;6265002;28;20049;-71
2022/12/25 00:39:48;;;;;;;73.70;39.17;;;;;;;;;;6263653;28;20052;-72
2022/12/25 00:42:49;;;;;;;71.20;38.78;;;;;;;;;;6265378;28;20067;-71
2022/12/25 00:45:58;;;;;;;73.18;39.22;;;;;;;;;;6265794;28;20052;-72
2022/12/25 00:48:59;;;;;;;63.42;37.42;;;;;;;;;;6265701;28;20782;-72
2022/12/25 00:52:01;;;;;;;73.63;39.58;;;;;;;;;;6263374;28;20075;-72
2022/12/25 00:55:03;;;;;;;68.90;38.38;;;;;;;;;;6263852;28;20049;-72
2022/12/25 00:58:05;;;;;;;62.90;35.85;;;;;;;;;;6267761;28;20045;-72
2022/12/25 01:01:09;;;;;;;70.05;37.70;;;;;;;;;;6264899;28;20180;-72
2022/12/25 01:04:11;;;;;;;;;;;;;;;;;;6265673;28;20670;-72
2022/12/25 01:07:12;;;;;;;64.72;35.78;;;;;;;;;;6266704;28;19925;-71
2022/12/25 01:10:22;;;;;;;73.55;37.88;;;;;;;;;;6268736;28;20053;-73
2022/12/25 01:13:24;;;;;;;70.40;36.30;;;;;;;;;;6265544;28;20045;-72
2022/12/25 01:16:27;;;;;;;64.03;37.15;;;;;;;;;;6261131;28;20084;-72
2022/12/25 01:19:29;;;;;;;70.10;39.30;;;;;;;;;;6267622;28;20325;-72
2022/12/25 01:22:30;;;;;;;68.47;37.58;;;;;;;;;;6266240;28;20142;-72
2022/12/25 01:25:33;;;;;;;64.25;37.58;;;;;;;;;;6264305;28;20049;-72
2022/12/25 01:28:35;;;;;;;69.15;36.67;;;;;;;;;;6268625;28;20057;-72
2022/12/25 01:31:38;;;;;;;67.25;37.58;;;;;;;;;;6265587;28;20432;-72
2022/12/25 01:34:39;;;;;;;69.90;36.60;;;;;;;;;;6265997;28;20052;-72
2022/12/25 01:37:41;;;;;;;66.22;37.97;;;;;;;;;;6262679;28;20064;-72
2022/12/25 01:40:44;;;;;;;73.32;38.85;;;;;;;;;;6266449;28;20067;-72
2022/12/25 01:44:04;;;;;;;64.85;36.40;;;;;;;;;;6266819;28;20285;-71
2022/12/25 01:47:07;;;;;;;68.80;37.65;;;;;;;;;;6264622;28;20084;-72
2022/12/25 01:50:09;;;;;;;73.67;38.10;;;;;;;;;;6264180;28;20057;-72
2022/12/25 01:53:11;;;;;;;70.20;37.95;;;;;;;;;;6264128;28;20041;-71
2022/12/25 01:56:13;;;;;;;66.70;37.95;;;;;;;;;;6264158;28;20054;-71
2022/12/25 01:59:17;;;;;;;70.07;37.72;;;;;;;;;;6267031;28;20052;-72
2022/12/25 02:02:21;;;;;;;72.95;38.72;;;;;;;;;;6264115;28;20053;-71
2022/12/25 02:05:26;;;;;;;70.82;38.03;;;;;;;;;;6262629;28;20060;-72
2022/12/25 02:08:27;;;;;;;73.13;37.85;;;;;;;;;;6266815;28;20402;-71
2022/12/25 02:14:49;;;;;;;76.32;38.88;;;;;;;;;;6263783;28;20053;-72
2022/12/25 02:17:58;;;;;;;71.97;38.58;;;;;;;;;;6265955;28;20045;-72
2022/12/25 02:21:11;;;;;;;70.25;38.40;;;;;;;;;;6265822;28;20107;-73
2022/12/25 02:24:35;;;;;;;70.93;37.88;;;;;;;;;;6265052;28;20325;-72
2022/12/25 02:28:01;;;;;;;;;;;;;;;;;;6260701;28;20056;-72
2022/12/25 02:31:08;;;;;;;69.97;37.45;;;;;;;;;;6248184;28;19935;-72
2022/12/25 02:34:14;;;;;;;70.10;37.97;;;;;;;;;;6261617;28;20045;-73
2022/12/25 02:37:20;;;;;;;73.65;39.88;;;;;;;;;;6271677;28;20140;-73
2022/12/25 02:40:26;;;;;;;75.63;38.53;;;;;;;;;;6270786;28;20053;-72
2022/12/25 03:07:08;;;;;;;71.05;37.03;;;;;;;;;;6216077;28;20113;-73
2022/12/25 03:13:46;;;;;;;72.55;37.72;;;;;;;;;;6118844;29;20172;-73
2022/12/25 03:16:49;;;;;;;74.35;38.67;;;;;;;;;;6118919;29;20107;-71
2022/12/25 03:26:55;;;;;;;71.97;37.88;;;;;;;;;;6081585;29;20052;-71
2022/12/25 03:33:20;;;;;;;73.70;38.00;;;;;;;;;;6081895;29;20064;-71
2022/12/25 03:36:29;;;;;;;71.80;35.83;;;;;;;;;;6080985;29;20053;-71
2022/12/25 04:36:35;;;;;;;71.78;37.40;;;;;;;;;;6172114;28;20085;-73
2022/12/25 04:39:36;;;;;;;72.45;36.80;;;;;;;;;;6170574;28;20351;-73
2022/12/25 04:42:39;;;;;;;68.18;36.60;;;;;;;;;;6178258;28;20054;-73
2022/12/25 04:45:41;;;;;;;69.50;36.92;;;;;;;;;;6175244;28;20054;-71
2022/12/25 04:48:43;;;;;;;70.03;35.00;;;;;;;;;;6175034;28;20097;-73
2022/12/25 04:51:44;;;;;;;69.55;36.42;;;;;;;;;;6173732;28;20062;-71
2022/12/25 04:54:46;;;;;;;70.82;37.30;;;;;;;;;;6175331;28;20050;-72
2022/12/25 04:57:49;;;;;;;73.47;36.47;;;;;;;;;;6174133;28;20129;-71
2022/12/25 05:00:51;;;;;;;62.83;34.25;;;;;;;;;;6174515;28;20740;-70
2022/12/25 05:03:52;;;;;;;66.38;36.20;;;;;;;;;;6253887;28;20042;-71
2022/12/25 05:06:54;;;;;;;67.93;32.65;;;;;;;;;;6264996;28;20053;-71
2022/12/25 05:09:57;;;;;;;67.00;35.47;;;;;;;;;;6263290;28;20046;-72
2022/12/25 05:13:00;;;;;;;61.85;33.30;;;;;;;;;;6265876;28;20051;-70
2022/12/25 05:16:04;;;;;;;72.20;34.05;;;;;;;;;;6266319;28;20048;-71
2022/12/25 05:19:06;;;;;;;63.42;33.92;;;;;;;;;;6266421;28;20056;-72
2022/12/25 05:22:08;;;;;;;66.18;34.03;;;;;;;;;;6263474;28;20045;-72
2022/12/25 05:25:10;;;;;;;64.47;33.80;;;;;;;;;;6265422;28;20061;-71
2022/12/25 05:28:13;;;;;;;64.03;33.75;;;;;;;;;;6264607;28;20052;-71
2022/12/25 05:31:14;;;;;;;64.95;33.67;;;;;;;;;;6264644;28;20056;-72
2022/12/25 05:34:16;;;;;;;63.63;33.00;;;;;;;;;;6266617;28;20068;-71
2022/12/25 05:37:18;;;;;;;66.43;32.85;;;;;;;;;;6265767;28;20061;-72
2022/12/25 05:40:19;;;;;;;60.63;33.28;;;;;;;;;;6265670;28;20056;-70
2022/12/25 05:43:22;;;;;;;64.75;34.05;;;;;;;;;;6263661;28;20053;-72
2022/12/25 05:46:24;;;;;;;64.72;32.20;;;;;;;;;;6261781;28;20052;-71
2022/12/25 05:49:26;;;;;;;69.95;34.65;;;;;;;;;;6266371;28;20057;-71
2022/12/25 05:52:31;;;;;;;65.22;33.95;;;;;;;;;;6263956;28;20057;-72
2022/12/25 05:55:33;;;;;;;69.90;35.13;;;;;;;;;;6267953;28;20230;-72
2022/12/25 05:58:39;;;;;;;67.95;35.20;;;;;;;;;;6263497;28;20305;-72
2022/12/25 06:01:40;;;;;;;76.82;37.92;;;;;;;;;;6264752;28;20228;-72
2022/12/25 06:04:42;;;;;;;73.15;38.38;;;;;;;;;;6266192;28;20053;-71
2022/12/25 06:07:44;;;;;;;72.35;36.72;;;;;;;;;;6267163;28;20049;-72
2022/12/25 06:10:46;;;;;;;71.97;37.38;;;;;;;;;;6264607;28;20053;-71
2022/12/25 06:13:51;;;;;;;67.57;35.75;;;;;;;;;;6273239;28;20045;-72
2022/12/25 06:16:53;;;;;;;69.22;36.47;;;;;;;;;;6269913;28;20065;-71
2022/12/25 06:19:54;;;;;;;68.97;36.72;;;;;;;;;;6268789;28;20119;-71
2022/12/25 06:22:56;;;;;;;71.50;38.28;;;;;;;;;;6269270;28;20060;-72
2022/12/25 06:25:58;;;;;;;67.18;36.38;;;;;;;;;;6268277;28;20103;-71
2022/12/25 06:29:01;;;;;;;72.95;38.22;;;;;;;;;;6266560;28;20049;-72
2022/12/25 06:32:03;;;;;;;73.28;37.63;;;;;;;;;;6269367;28;20053;-72
2022/12/25 06:35:06;;;;;;;77.45;38.25;;;;;;;;;;6268720;28;20091;-72
2022/12/25 06:38:08;;;;;;;69.43;37.77;;;;;;;;;;6269403;28;20053;-72
2022/12/25 06:41:11;;;;;;;75.60;38.65;;;;;;;;;;6269517;28;20110;-71
2022/12/25 06:44:14;;;;;;;70.03;37.08;;;;;;;;;;6269222;28;20099;-71
2022/12/25 06:47:16;;;;;;;72.97;36.80;;;;;;;;;;6269492;28;20111;-71
2022/12/25 06:50:17;;;;;;;77.70;40.15;;;;;;;;;;6269450;28;20471;-72
2022/12/25 06:53:19;;;;;;;78.50;39.13;;;;;;;;;;6268025;28;20202;-72
2022/12/25 06:56:22;;;;;;;72.97;38.00;;;;;;;;;;6267414;28;20176;-71
2022/12/25 06:59:25;;;;;;;78.67;39.20;;;;;;;;;;6266601;28;20045;-71
2022/12/25 07:02:27;;;;;;;77.13;38.28;;;;;;;;;;6268807;28;20053;-72
2022/12/25 07:05:29;;;;;;;70.78;38.15;;;;;;;;;;6270985;28;20099;-72
2022/12/25 07:08:31;;;;;;;76.53;38.40;;;;;;;;;;6266938;28;20053;-72
2022/12/25 07:11:32;;;;;;;83.63;41.15;;;;;;;;;;6268927;28;20056;-72
2022/12/25 07:14:35;;;;;;;72.70;36.55;;;;;;;;;;6268425;28;20087;-70
2022/12/25 07:17:37;;;;;;;80.30;38.70;;;;;;;;;;6265583;28;20061;-72
2022/12/25 07:20:38;;;;;;;72.25;36.78;;;;;;;;;;6268965;28;20049;-73
2022/12/25 07:23:41;;;;;;;75.47;39.10;;;;;;;;;;6264848;28;20360;-72
2022/12/25 07:26:43;;;;;;;73.88;38.15;;;;;;;;;;6267990;28;20057;-71
2022/12/25 07:29:46;;;;;;;63.88;36.03;;;;;;;;;;6269856;28;20076;-71
2022/12/25 07:32:48;;;;;;;67.65;36.35;;;;;;;;;;6266860;28;20057;-73
2022/12/25 07:35:50;;;;;;;69.10;37.30;;;;;;;;;;6266491;28;20049;-72
2022/12/25 07:38:51;;;;;;;70.13;36.15;;;;;;;;;;6269784;28;20087;-72
2022/12/25 07:41:53;;;;;;;69.53;36.20;;;;;;;;;;6271237;28;20044;-72
2022/12/25 07:44:56;;;;;;;70.90;38.13;;;;;;;;;;6267732;28;20053;-70
2022/12/25 07:47:58;;;;;;;69.53;36.03;;;;;;;;;;6268618;28;20137;-72
2022/12/25 07:51:01;;;;;;;72.85;38.55;;;;;;;;;;6267227;28;20056;-73
2022/12/25 07:54:03;;;;;;;71.30;37.37;;;;;;;;;;6265753;28;20052;-72
2022/12/25 07:57:04;;;;;;;65.68;36.83;;;;;;;;;;6264234;28;20045;-74
2022/12/25 08:00:09;;;;;;;68.70;37.22;;;;;;;;;;6266888;28;20382;-74
2022/12/25 08:03:11;;;;;;;72.00;37.60;;;;;;;;;;6267592;28;20072;-73
2022/12/25 08:06:12;;;;;;;67.60;37.30;;;;;;;;;;6262921;28;20045;-71
2022/12/25 08:09:14;;;;;;;70.57;37.33;;;;;;;;;;6266913;28;20060;-74
2022/12/25 08:12:16;;;;;;;67.55;36.75;;;;;;;;;;6263729;28;20045;-73
2022/12/25 08:15:19;;;;;;;68.53;37.17;;;;;;;;;;6264335;28;20388;-73
2022/12/25 08:18:21;;;;;;;70.82;37.03;;;;;;;;;;6268571;28;20053;-70
2022/12/25 08:21:22;;;;;;;63.83;34.35;;;;;;;;;;6267603;28;20057;-71
2022/12/25 08:24:24;;;;;;;67.97;35.83;;;;;;;;;;6265511;28;20049;-70
2022/12/25 08:27:26;;;;;;;70.82;35.88;;;;;;;;;;6266423;28;20052;-74
2022/12/25 08:30:29;;;;;;;67.45;35.70;;;;;;;;;;6263156;28;20049;-72
2022/12/25 08:33:30;;;;;;;72.65;36.25;;;;;;;;;;6265366;28;20044;-74
2022/12/25 08:36:32;;;;;;;77.90;37.85;;;;;;;;;;6263152;28;20041;-75
2022/12/25 08:39:34;;;;;;;75.43;38.05;;;;;;;;;;6267837;28;20083;-73
2022/12/25 08:42:35;;;;;;;71.15;36.33;;;;;;;;;;6266379;28;20052;-72
2022/12/25 08:45:38;;;;;;;74.65;37.55;;;;;;;;;;6266831;28;20315;-72
2022/12/25 08:48:42;;;;;;;72.70;37.30;;;;;;;;;;6265040;28;20057;-72
2022/12/25 08:51:44;;;;;;;67.43;36.05;;;;;;;;;;6266155;28;20048;-73
2022/12/25 08:54:46;;;;;;;69.85;36.65;;;;;;;;;;6262314;28;20040;-72
2022/12/25 08:57:48;;;;;;;76.88;37.80;;;;;;;;;;6263623;28;20344;-73
2022/12/25 09:00:51;;;;;;;71.50;37.25;;;;;;;;;;6266264;28;20379;-71
2022/12/25 09:03:52;;;;;;;70.10;36.67;;;;;;;;;;6266361;28;20049;-74
2022/12/25 09:06:54;;;;;;;72.55;38.15;;;;;;;;;;6267705;28;20407;-75
2022/12/25 09:09:56;;;;;;;74.53;36.92;;;;;;;;;;6264885;28;20115;-71
2022/12/25 09:12:58;;;;;;;70.97;36.53;;;;;;;;;;6262920;28;20205;-72
2022/12/25 09:16:05;;;;;;;71.07;37.35;;;;;;;;;;6264913;28;20722;-71
2022/12/25 09:19:07;;;;;;;72.72;38.10;;;;;;;;;;6263926;28;20040;-69
2022/12/25 09:22:08;;;;;;;75.55;38.05;;;;;;;;;;6267067;28;20351;-71
2022/12/25 09:25:11;;;;;;;74.78;38.80;;;;;;;;;;6265064;28;20053;-73
2022/12/25 09:28:12;;;;;;;72.95;38.17;;;;;;;;;;6264912;28;20244;-69
2022/12/25 09:31:15;;;;;;;71.78;37.20;;;;;;;;;;6265538;28;20091;-71
2022/12/25 09:34:17;;;;;;;73.07;37.30;;;;;;;;;;6264182;28;20095;-71
2022/12/25 09:37:19;;;;;;;73.60;38.28;;;;;;;;;;6266650;28;20049;-73
2022/12/25 09:40:22;;;;;;;73.60;38.08;;;;;;;;;;6262042;28;20045;-72
2022/12/25 09:43:25;;;;;;;76.03;38.53;;;;;;;;;;6262637;28;20352;-72
2022/12/25 09:46:34;;;;;;;71.93;38.63;;;;;;;;;;6261320;28;20114;-72
2022/12/25 09:49:39;;;;;;;70.82;37.78;;;;;;;;;;6261786;28;20048;-70
2022/12/25 09:52:44;;;;;;;70.05;36.88;;;;;;;;;;6265207;28;20347;-72
2022/12/25 09:55:49;;;;;;;72.32;39.20;;;;;;;;;;6262740;28;20052;-72
2022/12/25 09:58:51;;;;;;;73.90;39.38;;;;;;;;;;6263965;28;20148;-76
2022/12/25 10:02:10;;;;;;;70.90;39.88;;;;;;;;;;6265027;28;20103;-72
2022/12/25 10:05:21;;;;;;;74.43;38.60;;;;;;;;;;6265162;28;20145;-72
2022/12/25 10:08:35;;;;;;;72.68;39.85;;;;;;;;;;6264703;28;20265;-73
2022/12/25 10:11:47;;;;;;;78.38;39.22;;;;;;;;;;6267422;28;20237;-73
2022/12/25 10:14:59;;;;;;;66.35;37.00;;;;;;;;;;6262941;28;20419;-71
2022/12/25 10:18:20;;;;;;;69.72;37.17;;;;;;;;;;6263349;28;20061;-71
2022/12/25 10:21:22;;;;;;;70.05;37.40;;;;;;;;;;6264937;28;20045;-70
2022/12/25 10:24:30;;;;;;;78.72;39.40;;;;;;;;;;6265291;28;20049;-68
2022/12/25 10:27:34;;;;;;;74.68;39.85;;;;;;;;;;6263266;28;20103;-72
2022/12/25 10:30:36;;;;;;;75.50;40.33;;;;;;;;;;6260322;28;20060;-70
2022/12/25 10:33:39;;;;;;;74.03;39.00;;;;;;;;;;6263687;28;20120;-71
2022/12/25 10:36:42;;;;;;;73.78;39.85;;;;;;;;;;6264372;28;20057;-71
2022/12/25 10:39:44;;;;;;;74.43;38.65;;;;;;;;;;6263474;28;20104;-71
2022/12/25 10:42:46;;;;;;;75.90;39.95;;;;;;;;;;6265231;28;20087;-72
2022/12/25 10:45:49;;;;;;;72.10;38.97;;;;;;;;;;6264484;28;20276;-71
2022/12/25 10:48:54;;;;;;;77.05;38.30;;;;;;;;;;6262135;28;20044;-70
2022/12/25 10:51:55;;;;;;;74.78;39.15;;;;;;;;;;6262941;28;20092;-71
2022/12/25 10:54:57;;;;;;;71.82;37.55;;;;;;;;;;6264411;28;20053;-72
2022/12/25 10:58:00;;;;;;;69.90;37.88;;;;;;;;;;6269152;28;20272;-71
2022/12/25 11:01:05;;;;;;;76.17;38.57;;;;;;;;;;6273072;28;20041;-71
2022/12/25 11:04:20;;;;;;;74.53;38.15;;;;;;;;;;6270106;28;20504;-71
2022/12/25 11:07:24;;;;;;;69.45;37.03;;;;;;;;;;6268721;28;20045;-71
2022/12/25 11:10:29;;;;;;;72.53;37.92;;;;;;;;;;6272153;28;20041;-75
2022/12/25 11:13:31;;;;;;;73.28;38.92;;;;;;;;;;6274707;28;20341;-71
2022/12/25 11:16:37;;;;;;;71.10;38.95;;;;;;;;;;6270963;28;20049;-71
2022/12/25 11:19:40;;;;;;;69.10;38.42;;;;;;;;;;6268470;28;20052;-70
2022/12/25 11:22:44;;;;;;;70.32;37.78;;;;;;;;;;6269015;28;20107;-71
2022/12/25 11:25:55;;;;;;;78.15;41.78;;;;;;;;;;6268293;28;20116;-71
2022/12/25 11:28:57;;;;;;;70.35;37.60;;;;;;;;;;6268848;28;20063;-73
2022/12/25 11:32:00;;;;;;;68.53;37.83;;;;;;;;;;6265713;28;20061;-72
2022/12/25 11:35:04;;;;;;;61.42;36.75;;;;;;;;;;6270285;28;20249;-71
2022/12/25 11:38:07;;;;;;;67.65;37.40;;;;;;;;;;6267972;28;20049;-71
2022/12/25 11:41:10;;;;;;;64.60;37.00;;;;;;;;;;6268257;28;20516;-73
2022/12/25 11:44:25;;;;;;;68.25;38.33;;;;;;;;;;6270764;28;20329;-72
2022/12/25 11:47:35;;;;;;;64.80;36.60;;;;;;;;;;6267547;28;20072;-72
2022/12/25 11:50:42;;;;;;;69.25;37.05;;;;;;;;;;6267343;28;20073;-71
2022/12/25 11:53:47;;;;;;;66.43;37.58;;;;;;;;;;6268062;28;20053;-73
2022/12/25 11:56:48;;;;;;;67.18;36.03;;;;;;;;;;6269126;28;20279;-70
2022/12/25 11:59:54;;;;;;;62.75;35.88;;;;;;;;;;6271886;28;20052;-72
2022/12/25 12:02:59;;;;;;;65.35;35.63;;;;;;;;;;6267297;28;20049;-70
2022/12/25 12:06:05;;;;;;;68.40;36.58;;;;;;;;;;6254100;28;20045;-69
2022/12/25 12:09:22;;;;;;;67.97;37.10;;;;;;;;;;6250696;28;20049;-72
2022/12/25 12:12:31;;;;;;;67.25;36.40;;;;;;;;;;6271768;28;20057;-70
2022/12/25 12:15:41;;;;;;;67.05;37.65;;;;;;;;;;6262696;28;20099;-70
2022/12/25 12:18:43;;;;;;;65.60;32.85;;;;;;;;;;6262923;28;20301;-71
2022/12/25 12:21:49;;;;;;;61.42;35.30;;;;;;;;;;6264036;28;20091;-72
2022/12/25 12:24:55;;;;;;;64.57;35.58;;;;;;;;;;6268098;28;20053;-71
2022/12/25 12:27:58;;;;;;;65.25;36.88;;;;;;;;;;6267277;28;20052;-73
2022/12/25 12:31:02;;;;;;;68.57;38.43;;;;;;;;;;6266283;28;20089;-72
2022/12/25 12:34:03;;;;;;;70.65;37.40;;;;;;;;;;6269225;28;20057;-74
2022/12/25 12:37:18;;;;;;;68.13;37.75;;;;;;;;;;6264734;28;20064;-70
2022/12/25 12:40:31;;;;;;;65.93;37.22;;;;;;;;;;6265905;28;20097;-70
2022/12/25 12:43:36;;;;;;;72.05;38.20;;;;;;;;;;6267613;28;20120;-71
2022/12/25 12:46:39;;;;;;;69.30;39.35;;;;;;;;;;6263412;28;20059;-71
2022/12/25 12:49:40;;;;;;;65.85;37.03;;;;;;;;;;6265720;28;20095;-72
2022/12/25 12:52:43;;;;;;;70.45;38.97;;;;;;;;;;6264696;28;20280;-70
2022/12/25 12:55:45;;;;;;;72.82;38.58;;;;;;;;;;6264094;28;20124;-72
2022/12/25 12:58:49;;;;;;;71.85;38.70;;;;;;;;;;6262416;28;20046;-72
2022/12/25 13:01:52;;;;;;;;;;;;;;;;;;6264986;28;20051;-74
2022/12/25 13:05:01;;;;;;;70.68;38.75;;;;;;;;;;6266202;28;20058;-73
2022/12/25 13:08:12;;;;;;;72.13;39.08;;;;;;;;;;6264298;28;20079;-74
2022/12/25 13:11:18;;;;;;;74.55;38.20;;;;;;;;;;6264510;28;20148;-74
2022/12/25 13:14:22;;;;;;;69.57;39.47;;;;;;;;;;6261116;28;20324;-75
2022/12/25 13:17:25;;;;;;;76.50;41.22;;;;;;;;;;6265266;28;20144;-73
2022/12/25 13:20:36;;;;;;;79.27;42.33;;;;;;;;;;6261990;28;20336;-73
2022/12/25 13:23:39;;;;;;;77.53;40.60;;;;;;;;;;6261300;28;20447;-72
2022/12/25 13:26:41;;;;;;;72.15;39.83;;;;;;;;;;6266417;28;20185;-73
2022/12/25 13:29:43;;;;;;;74.63;41.50;;;;;;;;;;6264003;28;20061;-75
2022/12/25 13:32:45;;;;;;;75.28;42.00;;;;;;;;;;6267311;28;20064;-74
2022/12/25 13:35:47;;;;;;;78.28;40.80;;;;;;;;;;6264616;28;20065;-73
2022/12/25 13:38:51;;;;;;;75.20;40.75;;;;;;;;;;6263274;28;20048;-70
2022/12/25 13:42:08;;;;;;;79.97;42.17;;;;;;;;;;6263633;28;20387;-72
2022/12/25 13:45:21;;;;;;;80.95;42.08;;;;;;;;;;6263929;28;20060;-71
2022/12/25 13:48:24;;;;;;;82.57;42.75;;;;;;;;;;6264306;28;20049;-71
2022/12/25 13:51:26;;;;;;;83.03;42.20;;;;;;;;;;6263058;28;20230;-72
2022/12/25 13:54:29;;;;;;;73.85;41.95;;;;;;;;;;6265556;28;20345;-72
2022/12/25 13:57:35;;;;;;;70.60;39.05;;;;;;;;;;6263079;28;20102;-70
2022/12/25 14:00:38;;;;;;;77.35;40.15;;;;;;;;;;6265019;28;20053;-72
2022/12/25 14:03:41;;;;;;;75.95;40.28;;;;;;;;;;6265879;28;20233;-72
2022/12/25 14:06:43;;;;;;;74.47;40.33;;;;;;;;;;6263574;28;20107;-72
2022/12/25 14:09:47;;;;;;;83.95;42.95;;;;;;;;;;6265761;28;20301;-72
2022/12/25 14:12:50;;;;;;;80.05;43.40;;;;;;;;;;6263914;28;20063;-73
2022/12/25 14:15:52;;;;;;;80.85;44.88;;;;;;;;;;6263481;28;20053;-73
2022/12/25 14:18:55;;;;;;;84.05;44.75;;;;;;;;;;6268723;28;20089;-72
2022/12/25 14:22:00;;;;;;;83.05;44.45;;;;;;;;;;6262244;28;20069;-73
2022/12/25 14:25:03;;;;;;;86.43;45.20;;;;;;;;;;6261205;28;20095;-72
2022/12/25 14:28:07;;;;;;;87.27;45.07;;;;;;;;;;6266551;28;20052;-71
2022/12/25 14:31:11;;;;;;;81.65;45.28;;;;;;;;;;6265349;28;20060;-72
2022/12/25 14:34:17;;;;;;;83.15;45.85;;;;;;;;;;6268658;28;20045;-72
2022/12/25 14:37:21;;;;;;;82.22;44.90;;;;;;;;;;6268799;28;20057;-72
2022/12/25 14:40:26;;;;;;;80.97;43.08;;;;;;;;;;6265717;28;20041;-72
2022/12/25 14:43:28;;;;;;;83.57;44.08;;;;;;;;;;6268399;28;20045;-70
2022/12/25 14:46:31;;;;;;;82.38;43.30;;;;;;;;;;6268848;28;20114;-71
2022/12/25 14:49:33;;;;;;;84.07;44.20;;;;;;;;;;6270302;28;20110;-71
2022/12/25 14:52:39;;;;;;;80.05;43.63;;;;;;;;;;6269978;28;20160;-72
2022/12/25 14:55:47;;;;;;;77.57;42.10;;;;;;;;;;6266915;28;20115;-72
2022/12/25 14:58:51;;;;;;;79.15;41.42;;;;;;;;;;6266591;28;20069;-71
2022/12/25 15:01:55;;;;;;;82.97;42.72;;;;;;;;;;6270079;28;20064;-72
2022/12/25 15:04:57;;;;;;;80.60;42.83;;;;;;;;;;6269207;28;20091;-71
2022/12/25 15:08:18;;;;;;;78.22;41.17;;;;;;;;;;6266747;28;20052;-73
2022/12/25 15:11:21;;;;;;;81.53;42.88;;;;;;;;;;6266526;28;20151;-74
2022/12/25 15:14:23;;;;;;;86.90;44.67;;;;;;;;;;6269238;28;20178;-71
2022/12/25 15:17:26;;;;;;;83.07;43.10;;;;;;;;;;6266270;28;20268;-71
2022/12/25 15:20:31;;;;;;;83.67;44.33;;;;;;;;;;6265893;28;20054;-71
2022/12/25 15:23:32;;;;;;;87.55;44.00;;;;;;;;;;6267554;28;20476;-71
2022/12/25 15:26:35;;;;;;;85.05;44.35;;;;;;;;;;6264978;28;20057;-71
2022/12/25 15:29:37;;;;;;;84.70;44.35;;;;;;;;;;6268397;28;20049;-68
2022/12/25 15:32:39;;;;;;;78.30;43.40;;;;;;;;;;6271297;28;20061;-71
2022/12/25 15:35:40;;;;;;;79.63;43.25;;;;;;;;;;6267482;28;20075;-70
2022/12/25 15:38:42;;;;;;;86.57;42.95;;;;;;;;;;6264801;28;20112;-70
2022/12/25 15:45:05;;;;;;;80.20;43.15;;;;;;;;;;6265398;28;20136;-71
2022/12/25 15:48:07;;;;;;;80.32;42.85;;;;;;;;;;6265841;28;20041;-71
2022/12/25 15:51:09;;;;;;;81.85;43.22;;;;;;;;;;6266979;28;20056;-70
2022/12/25 15:54:11;;;;;;;87.28;45.22;;;;;;;;;;6266965;28;20041;-70
2022/12/25 15:57:18;;;;;;;82.15;43.88;;;;;;;;;;6269085;28;20045;-70
2022/12/25 16:00:24;;;;;;;75.85;43.65;;;;;;;;;;6265905;28;20117;-72
2022/12/25 16:03:26;;;;;;;77.22;41.00;;;;;;;;;;6269547;28;20060;-70
2022/12/25 16:06:28;;;;;;;80.60;43.38;;;;;;;;;;6265030;28;20045;-70
2022/12/25 16:09:29;;;;;;;84.43;43.95;;;;;;;;;;6266938;28;20065;-69
2022/12/25 16:12:32;;;;;;;82.45;43.85;;;;;;;;;;6266441;28;20280;-70
2022/12/25 16:15:34;;;;;;;76.35;41.60;;;;;;;;;;6268635;28;20102;-70
2022/12/25 16:18:35;;;;;;;79.70;42.60;;;;;;;;;;6267041;28;20284;-71
2022/12/25 16:21:39;;;;;;;78.38;42.38;;;;;;;;;;6267859;28;20060;-70
2022/12/25 16:24:41;;;;;;;83.03;43.40;;;;;;;;;;6268064;28;20111;-70
2022/12/25 16:27:44;;;;;;;76.10;42.40;;;;;;;;;;6266383;28;20052;-71
2022/12/25 16:30:46;;;;;;;84.68;42.35;;;;;;;;;;6265117;28;20321;-73
2022/12/25 16:33:47;;;;;;;81.40;42.92;;;;;;;;;;6266570;28;20052;-70
2022/12/25 16:36:49;;;;;;;83.80;42.97;;;;;;;;;;6263717;28;20090;-70
2022/12/25 16:39:51;;;;;;;82.93;43.47;;;;;;;;;;6264267;28;20049;-69
2022/12/25 16:42:54;;;;;;;81.20;43.33;;;;;;;;;;6266307;28;20052;-71
2022/12/25 16:45:57;;;;;;;82.25;43.38;;;;;;;;;;6263938;28;20094;-69
2022/12/25 16:48:58;;;;;;;83.95;44.70;;;;;;;;;;6265500;28;20056;-69
2022/12/25 16:52:00;;;;;;;83.75;45.30;;;;;;;;;;6266762;28;20048;-69
2022/12/25 16:55:03;;;;;;;87.95;45.50;;;;;;;;;;6263590;28;20096;-68
2022/12/25 16:58:06;;;;;;;86.90;45.47;;;;;;;;;;6265908;28;20079;-69
2022/12/25 17:01:10;;;;;;;91.13;45.15;;;;;;;;;;6263263;28;20053;-70
2022/12/25 17:04:11;;;;;;;89.80;46.78;;;;;;;;;;6266917;28;20060;-69
2022/12/25 17:07:14;;;;;;;91.55;45.55;;;;;;;;;;6263332;28;20090;-69
2022/12/25 17:10:16;;;;;;;84.75;44.53;;;;;;;;;;6265843;28;20049;-69
2022/12/25 17:13:19;;;;;;;87.65;45.47;;;;;;;;;;6264123;28;20176;-71
2022/12/25 17:16:23;;;;;;;90.90;45.97;;;;;;;;;;6265250;28;20324;-69
2022/12/25 17:19:25;;;;;;;86.70;44.83;;;;;;;;;;6266608;28;20273;-69
2022/12/25 17:22:27;;;;;;;87.88;45.22;;;;;;;;;;6264361;28;20213;-70
2022/12/25 17:25:28;;;;;;;89.90;46.17;;;;;;;;;;6261056;28;21086;-69
2022/12/25 17:28:32;;;;;;;86.25;43.47;;;;;;;;;;6262115;28;20064;-69
2022/12/25 17:31:34;;;;;;;92.93;45.97;;;;;;;;;;6265548;28;20241;-69
2022/12/25 17:34:36;;;;;;;86.78;45.05;;;;;;;;;;6264736;28;20085;-70
2022/12/25 17:37:37;;;;;;;89.03;45.17;;;;;;;;;;6264458;28;20263;-70
2022/12/25 17:40:39;;;;;;;84.43;45.10;;;;;;;;;;6269417;28;20056;-68
2022/12/25 17:43:44;;;;;;;88.63;46.13;;;;;;;;;;6269078;28;20087;-69
2022/12/25 17:46:45;;;;;;;83.65;43.63;;;;;;;;;;6265911;28;20099;-69
2022/12/25 17:49:47;;;;;;;84.90;46.05;;;;;;;;;;6267173;28;21053;-69
2022/12/25 17:52:49;;;;;;;88.60;45.35;;;;;;;;;;6267698;28;20053;-69
2022/12/25 17:55:50;;;;;;;91.63;46.47;;;;;;;;;;6267071;28;20329;-71
2022/12/25 17:58:55;;;;;;;88.95;46.15;;;;;;;;;;6264878;28;20057;-69
2022/12/25 18:01:56;;;;;;;92.85;44.20;;;;;;;;;;6263012;28;20237;-69
2022/12/25 18:04:58;;;;;;;92.28;45.13;;;;;;;;;;6268426;28;20094;-72
2022/12/25 18:08:00;;;;;;;83.72;43.42;;;;;;;;;;6266524;28;20045;-71
2022/12/25 18:11:03;;;;;;;82.40;42.17;;;;;;;;;;6269225;28;20130;-71
2022/12/25 18:14:07;;;;;;;86.03;42.92;;;;;;;;;;6266871;28;20055;-71
2022/12/25 18:17:09;;;;;;;;;;;;;;;;;;6267197;28;20167;-70
2022/12/25 18:20:11;;;;;;;89.97;43.15;;;;;;;;;;6268599;28;19971;-70
2022/12/25 18:23:13;;;;;;;97.32;44.80;;;;;;;;;;6264522;28;20072;-71
2022/12/25 18:26:15;;;;;;;89.15;43.10;;;;;;;;;;6265415;28;20065;-71
2022/12/25 18:29:18;;;;;;;94.70;43.63;;;;;;;;;;6264786;28;20049;-72
2022/12/25 18:32:19;;;;;;;92.82;44.67;;;;;;;;;;6268466;28;20048;-71
2022/12/25 18:35:21;;;;;;;93.07;44.72;;;;;;;;;;6266022;28;20080;-73
2022/12/25 18:38:23;;;;;;;93.78;45.10;;;;;;;;;;6267778;28;20057;-71
2022/12/25 18:41:26;;;;;;;95.75;45.25;;;;;;;;;;6270454;28;20048;-70
2022/12/25 18:44:30;;;;;;;100.45;45.00;;;;;;;;;;6263296;28;20103;-71
2022/12/25 18:47:32;;;;;;;104.50;45.67;;;;;;;;;;6267084;28;20050;-71
2022/12/25 18:50:34;;;;;;;96.32;45.08;;;;;;;;;;6268011;28;20226;-71
2022/12/25 18:53:36;;;;;;;108.00;46.45;;;;;;;;;;6269366;28;20083;-72
2022/12/25 18:56:38;;;;;;;94.18;45.00;;;;;;;;;;6268006;28;20056;-75
2022/12/25 18:59:41;;;;;;;106.85;46.53;;;;;;;;;;6263679;28;20055;-69
2022/12/25 19:02:43;;;;;;;96.90;43.72;;;;;;;;;;6267516;28;20055;-75
2022/12/25 19:05:44;;;;;;;95.97;45.60;;;;;;;;;;6263215;28;20049;-76
2022/12/25 19:08:46;;;;;;;100.00;46.60;;;;;;;;;;6263607;28;20060;-73
2022/12/25 19:11:50;;;;;;;98.55;45.95;;;;;;;;;;6261312;28;20124;-72
2022/12/25 19:14:53;;;;;;;97.72;45.67;;;;;;;;;;6261200;28;20064;-72
2022/12/25 19:17:55;;;;;;;94.47;45.08;;;;;;;;;;6265493;28;20411;-72
2022/12/25 19:20:56;;;;;;;97.38;45.40;;;;;;;;;;6267972;28;20060;-74
2022/12/25 19:23:58;;;;;;;92.70;44.80;;;;;;;;;;6267764;28;20084;-72
2022/12/25 19:27:00;;;;;;;97.82;44.63;;;;;;;;;;6267696;28;20057;-72
2022/12/25 19:30:05;;;;;;;94.22;45.38;;;;;;;;;;6267510;28;20317;-73